Time;durP1;ratioP1;P1;durP2;ratioP2;P2;SDS_P1;SDS_P2;PMS_P1;PMS_P2;Temp;Humidity;BMP_temperature;BMP_pressure;BME280_temperature;BME280_humidity;BME280_pressure;Samples;Min_cycle;Max_cycle;Signal;HPM_P1;HPM_P2
2022/10/13 00:01:26;;;;;;;2.70;2.37;;;5.10;99.90;5.00;101161.00;;;;4950474;28;87967;-61
2022/10/13 00:03:52;;;;;;;2.73;2.50;;;5.10;99.90;5.00;101172.00;;;;4951338;28;110592;-61
2022/10/13 00:06:22;;;;;;;4.37;3.03;;;5.20;99.90;4.90;101167.00;;;;4952817;28;106707;-61
2022/10/13 00:08:48;;;;;;;3.30;3.00;;;5.10;99.90;4.90;101168.00;;;;4950075;28;88572;-61
2022/10/13 00:11:20;;;;;;;3.20;2.47;;;5.10;99.90;4.90;101170.00;;;;4945636;28;87983;-62
2022/10/13 00:13:47;;;;;;;7.20;3.07;;;5.10;99.90;4.90;101165.00;;;;4950228;28;104429;-61
2022/10/13 00:16:16;;;;;;;6.20;2.37;;;5.10;99.90;4.90;101162.00;;;;4948003;28;88900;-62
2022/10/13 00:18:42;;;;;;;3.03;2.57;;;5.40;99.90;4.90;101169.00;;;;4952949;28;106433;-60
2022/10/13 00:21:15;;;;;;;4.33;2.73;;;5.10;99.90;4.90;101160.00;;;;4953654;28;87742;-62
2022/10/13 00:23:41;;;;;;;4.87;2.60;;;5.10;99.90;4.90;101157.00;;;;4947718;28;87706;-62
2022/10/13 00:26:11;;;;;;;3.50;3.20;;;5.10;99.90;4.90;101157.00;;;;4954645;28;109196;-62
2022/10/13 00:28:37;;;;;;;4.63;2.80;;;5.10;99.90;4.90;101157.00;;;;4950837;28;108265;-62
2022/10/13 00:31:23;;;;;;;3.17;2.80;;;5.00;99.90;4.90;101151.00;;;;4946994;28;88938;-62
2022/10/13 00:33:49;;;;;;;3.63;2.40;;;5.10;99.90;4.90;101152.00;;;;4956364;28;87333;-62
2022/10/13 00:36:15;;;;;;;2.37;2.17;;;5.10;99.90;4.90;101147.00;;;;4950318;28;87891;-61
2022/10/13 00:38:41;;;;;;;6.57;2.80;;;5.10;99.90;4.90;101158.00;;;;4949328;28;117965;-62
2022/10/13 00:41:07;;;;;;;3.53;2.33;;;5.10;99.90;4.90;101156.00;;;;4954067;28;116503;-62
2022/10/13 00:44:01;;;;;;;5.83;2.93;;;5.00;99.90;4.80;101154.00;;;;4951610;28;109004;-62
2022/10/13 00:46:33;;;;;;;3.83;2.07;;;5.10;99.90;4.80;101159.00;;;;4944546;28;87786;-62
2022/10/13 00:49:13;;;;;;;4.50;2.87;;;5.00;99.90;4.80;101148.00;;;;4951042;28;104104;-61
2022/10/13 00:51:45;;;;;;;3.57;2.07;;;5.00;99.90;4.80;101139.00;;;;4948215;28;88837;-62
2022/10/13 00:54:17;;;;;;;3.40;2.40;;;5.00;99.90;4.80;101135.00;;;;4952935;28;95449;-62
2022/10/13 00:56:44;;;;;;;4.37;2.80;;;5.00;99.90;4.80;101141.00;;;;4953618;28;87772;-62
2022/10/13 00:59:21;;;;;;;2.93;2.40;;;4.90;99.90;4.80;101150.00;;;;4946905;28;116061;-62
2022/10/13 01:01:51;;;;;;;2.90;2.37;;;5.00;99.90;4.80;101152.00;;;;4965217;28;87775;-62
2022/10/13 01:04:21;;;;;;;2.97;2.67;;;5.00;99.90;4.70;101146.00;;;;4951358;28;87924;-62
2022/10/13 01:06:48;;;;;;;3.63;2.30;;;4.90;99.90;4.70;101150.00;;;;4942655;28;88950;-61
2022/10/13 01:09:14;;;;;;;4.73;3.07;;;4.90;99.90;4.70;101137.00;;;;4942094;28;88424;-61
2022/10/13 01:12:01;;;;;;;3.93;2.93;;;4.80;99.90;4.60;101138.00;;;;4942544;28;87951;-60
2022/10/13 01:14:37;;;;;;;4.37;2.47;;;4.90;99.90;4.60;101128.00;;;;4948955;28;99225;-62
2022/10/13 01:17:19;;;;;;;3.20;2.37;;;4.80;99.90;4.50;101133.00;;;;4952245;28;88073;-62
2022/10/13 01:20:01;;;;;;;4.50;2.97;;;4.70;99.90;4.50;101137.00;;;;4948264;28;100408;-62
2022/10/13 01:22:51;;;;;;;4.37;2.60;;;4.70;99.90;4.50;101126.00;;;;4952588;28;87889;-62
2022/10/13 01:25:52;;;;;;;5.20;2.80;;;4.70;99.90;4.40;101126.00;;;;4962820;28;87012;-62
2022/10/13 01:29:21;;;;;;;3.00;2.67;;;4.70;99.90;4.30;101123.00;;;;4951356;28;100965;-62
2022/10/13 01:32:28;;;;;;;2.83;2.23;;;4.60;99.90;4.30;101135.00;;;;4942434;28;88465;-61
2022/10/13 01:35:00;;;;;;;2.73;2.40;;;4.60;99.90;4.40;101133.00;;;;4960385;28;89109;-62
2022/10/13 01:37:35;;;;;;;3.43;3.13;;;4.60;99.90;4.40;101125.00;;;;4969109;28;87677;-60
2022/10/13 01:40:23;;;;;;;4.60;3.20;;;4.60;99.90;4.50;101106.00;;;;4950015;28;90145;-60
2022/10/13 01:43:04;;;;;;;5.63;2.53;;;4.70;99.90;4.50;101114.00;;;;4981235;28;88215;-61
2022/10/13 01:45:39;;;;;;;4.83;3.47;;;4.70;99.90;4.60;101104.00;;;;4962707;28;87902;-61
2022/10/13 01:48:06;;;;;;;6.20;3.00;;;4.70;99.90;4.60;101111.00;;;;4965411;28;91094;-61
2022/10/13 01:50:33;;;;;;;4.20;2.20;;;4.80;99.90;4.60;101116.00;;;;4963753;28;88119;-58
2022/10/13 01:53:02;;;;;;;3.27;2.47;;;4.80;99.90;4.70;101104.00;;;;4955503;28;87888;-60
2022/10/13 01:55:28;;;;;;;3.70;3.17;;;4.90;99.90;4.70;101106.00;;;;4948062;28;88204;-59
2022/10/13 01:57:54;;;;;;;4.33;2.37;;;4.90;99.90;4.80;101103.00;;;;4951547;28;87891;-61
2022/10/13 02:00:21;;;;;;;5.30;2.90;;;4.90;99.90;4.80;101105.00;;;;4951409;28;88926;-61
2022/10/13 02:03:05;;;;;;;4.40;2.90;;;5.00;99.90;4.80;101090.00;;;;4946577;28;111034;-60
2022/10/13 02:05:47;;;;;;;3.17;2.57;;;5.00;99.90;4.80;101102.00;;;;4951669;28;109916;-60
2022/10/13 02:08:31;;;;;;;2.43;2.07;;;5.00;99.90;4.80;101100.00;;;;4949933;28;87980;-60
2022/10/13 02:11:29;;;;;;;3.83;2.83;;;5.00;99.90;4.80;101096.00;;;;4951973;28;95619;-59
2022/10/13 02:14:08;;;;;;;2.67;2.20;;;5.00;99.90;4.80;101089.00;;;;4918216;28;119377;-61
2022/10/13 02:16:40;;;;;;;3.47;2.10;;;5.00;99.90;4.80;101083.00;;;;4948864;28;94842;-61
2022/10/13 02:19:10;;;;;;;3.63;2.37;;;5.00;99.90;4.90;101092.00;;;;4950001;28;87074;-60
2022/10/13 02:21:36;;;;;;;2.67;2.47;;;5.00;99.90;4.90;101082.00;;;;4965077;28;97241;-61
2022/10/13 02:24:04;;;;;;;2.17;1.93;;;5.10;99.90;4.90;101086.00;;;;4949862;28;117363;-61
2022/10/13 02:26:31;;;;;;;3.60;2.87;;;5.10;99.90;4.90;101084.00;;;;4944072;28;104593;-59
2022/10/13 02:28:57;;;;;;;3.53;2.13;;;5.10;99.90;5.00;101070.00;;;;4951811;28;88129;-61
2022/10/13 02:31:23;;;;;;;3.70;2.40;;;5.10;99.90;5.00;101087.00;;;;4945850;28;87955;-61
2022/10/13 02:33:49;;;;;;;4.33;2.50;;;5.10;99.90;5.00;101082.00;;;;4947050;28;117835;-61
2022/10/13 02:36:15;;;;;;;1.73;1.40;;;5.10;99.90;4.90;101087.00;;;;4951236;28;107754;-61
2022/10/13 02:38:41;;;;;;;5.20;3.00;;;5.60;99.90;5.00;101083.00;;;;4946808;28;106038;-61
2022/10/13 02:41:06;;;;;;;3.70;2.47;;;5.10;99.90;4.90;101086.00;;;;4951429;28;87672;-60
2022/10/13 02:43:36;;;;;;;3.33;2.43;;;5.10;99.90;4.90;101089.00;;;;4952492;28;113558;-61
2022/10/13 02:46:02;;;;;;;4.90;2.90;;;5.10;99.90;4.90;101092.00;;;;4951454;28;87822;-61
2022/10/13 02:48:27;;;;;;;10.07;2.77;;;5.10;99.90;4.90;101094.00;;;;4949642;28;103680;-61
2022/10/13 02:50:53;;;;;;;3.53;2.87;;;5.10;99.90;4.90;101101.00;;;;4948968;28;109427;-61
2022/10/13 02:53:19;;;;;;;2.83;1.93;;;5.10;99.90;4.90;101094.00;;;;4946015;28;90938;-61
2022/10/13 02:55:45;;;;;;;4.30;2.30;;;5.10;99.90;5.00;101091.00;;;;4957655;28;87914;-61
2022/10/13 02:58:10;;;;;;;2.40;2.20;;;5.60;99.90;5.00;101079.00;;;;4953477;28;108052;-60
2022/10/13 03:00:38;;;;;;;9.07;1.90;;;5.20;99.90;5.00;101075.00;;;;4952461;28;87631;-61
2022/10/13 03:03:04;;;;;;;3.47;2.07;;;5.20;99.90;5.10;101080.00;;;;4956718;28;88677;-60
2022/10/13 03:05:30;;;;;;;2.00;1.90;;;5.60;99.90;5.00;101077.00;;;;4950984;28;99854;-59
2022/10/13 03:07:56;;;;;;;5.47;3.27;;;5.20;99.90;5.00;101077.00;;;;4952683;28;111297;-61
2022/10/13 03:10:21;;;;;;;3.23;2.70;;;5.40;99.90;5.00;101072.00;;;;4955645;28;108750;-61
2022/10/13 03:12:47;;;;;;;2.33;2.13;;;5.20;99.90;5.00;101069.00;;;;4943384;28;116243;-61
2022/10/13 03:15:13;;;;;;;3.10;2.73;;;5.20;99.90;5.00;101076.00;;;;4948078;28;115991;-61
2022/10/13 03:17:38;;;;;;;5.60;2.23;;;5.20;99.90;4.90;101080.00;;;;4955560;28;108687;-60
2022/10/13 03:20:05;;;;;;;2.60;2.40;;;5.10;99.90;4.90;101073.00;;;;4953507;28;109957;-61
2022/10/13 03:22:32;;;;;;;2.17;2.03;;;5.10;99.90;4.90;101068.00;;;;4954467;28;88612;-61
2022/10/13 03:24:58;;;;;;;4.20;2.83;;;5.10;99.90;4.90;101072.00;;;;4953645;28;88373;-61
2022/10/13 03:27:23;;;;;;;2.83;2.53;;;5.00;99.90;4.90;101068.00;;;;4948824;28;87711;-58
2022/10/13 03:29:49;;;;;;;3.50;2.77;;;5.00;99.90;4.90;101061.00;;;;4948466;28;108651;-61
2022/10/13 03:32:15;;;;;;;3.77;2.90;;;5.10;99.90;4.80;101062.00;;;;4956243;28;115307;-61
2022/10/13 03:34:41;;;;;;;7.27;2.00;;;5.00;99.90;4.80;101062.00;;;;4946560;28;88051;-60
2022/10/13 03:37:07;;;;;;;4.87;2.47;;;5.00;99.90;4.70;101051.00;;;;4950621;28;109985;-60
2022/10/13 03:39:33;;;;;;;2.70;1.90;;;4.90;99.90;4.70;101059.00;;;;4954292;28;88932;-59
2022/10/13 03:41:59;;;;;;;2.73;2.10;;;4.90;99.90;4.60;101058.00;;;;4948184;28;116995;-61
2022/10/13 03:44:24;;;;;;;6.20;2.63;;;4.80;99.90;4.60;101062.00;;;;4946447;28;117149;-61
2022/10/13 03:46:50;;;;;;;2.77;2.47;;;4.70;99.90;4.60;101061.00;;;;4954540;28;111864;-61
2022/10/13 03:49:17;;;;;;;2.17;1.97;;;4.70;99.90;4.50;101061.00;;;;4949814;28;108932;-61
2022/10/13 03:51:43;;;;;;;4.70;2.67;;;4.70;99.90;4.50;101052.00;;;;4948743;28;88418;-60
2022/10/13 03:54:11;;;;;;;3.13;2.23;;;4.60;99.90;4.40;101059.00;;;;4953928;28;103815;-61
2022/10/13 03:56:38;;;;;;;2.40;1.80;;;4.60;99.90;4.40;101058.00;;;;4946694;28;87001;-60
2022/10/13 03:59:05;;;;;;;2.33;2.03;;;5.10;99.90;4.40;101055.00;;;;4952742;28;88179;-60
2022/10/13 04:01:32;;;;;;;2.53;2.03;;;4.60;99.90;4.30;101046.00;;;;4954960;28;89119;-61
2022/10/13 04:04:01;;;;;;;2.97;2.40;;;4.60;99.90;4.30;101057.00;;;;4948872;28;94252;-61
2022/10/13 04:06:27;;;;;;;3.40;2.97;;;4.50;99.90;4.30;101047.00;;;;4949598;28;87564;-60
2022/10/13 04:08:54;;;;;;;3.70;2.60;;;4.50;99.90;4.30;101048.00;;;;4955155;28;97709;-60
2022/10/13 04:11:20;;;;;;;3.13;2.83;;;4.50;99.90;4.30;101041.00;;;;4949480;28;88277;-61
2022/10/13 04:13:46;;;;;;;2.53;2.33;;;4.50;99.90;4.30;101044.00;;;;4952873;28;116489;-62
2022/10/13 04:16:19;;;;;;;6.37;2.40;;;4.50;99.90;4.30;101035.00;;;;4953046;28;93129;-61
2022/10/13 04:18:50;;;;;;;4.30;3.33;;;4.50;99.90;4.30;101038.00;;;;4948618;28;91596;-60
2022/10/13 04:21:15;;;;;;;4.77;3.57;;;4.40;99.90;4.30;101036.00;;;;4954460;28;95939;-62
2022/10/13 04:23:41;;;;;;;4.47;3.13;;;4.50;99.90;4.20;101029.00;;;;4950170;28;116805;-62
2022/10/13 04:26:19;;;;;;;7.00;4.40;;;4.40;99.90;4.20;101024.00;;;;4946314;28;87978;-61
2022/10/13 04:28:47;;;;;;;4.17;3.03;;;4.40;99.90;4.20;101024.00;;;;4946673;28;88776;-61
2022/10/13 04:31:13;;;;;;;6.70;3.63;;;4.40;99.90;4.20;101023.00;;;;4941979;28;88440;-61
2022/10/13 04:33:38;;;;;;;6.37;2.97;;;4.40;99.90;4.20;101028.00;;;;4950464;28;117479;-62
2022/10/13 04:36:10;;;;;;;3.03;2.67;;;4.30;99.90;4.20;101039.00;;;;4948778;28;88802;-62
2022/10/13 04:38:36;;;;;;;3.63;2.30;;;4.40;99.90;4.20;101034.00;;;;4950908;28;87850;-61
2022/10/13 04:41:04;;;;;;;6.27;3.27;;;4.70;99.90;4.20;101038.00;;;;4950800;28;117413;-61
2022/10/13 04:43:30;;;;;;;3.37;2.90;;;4.40;99.90;4.20;101043.00;;;;4951327;28;98884;-62
2022/10/13 04:46:03;;;;;;;2.63;2.40;;;4.40;99.90;4.30;101036.00;;;;4951240;28;87383;-61
2022/10/13 04:48:29;;;;;;;3.60;3.00;;;4.40;99.90;4.30;101034.00;;;;4945389;28;101890;-61
2022/10/13 04:51:19;;;;;;;4.17;3.40;;;4.50;99.90;4.30;101033.00;;;;4946551;28;117679;-61
2022/10/13 04:53:46;;;;;;;3.43;2.27;;;4.60;99.90;4.50;101034.00;;;;4946331;28;88934;-61
2022/10/13 04:56:15;;;;;;;4.07;3.43;;;4.60;99.90;4.60;101038.00;;;;4953120;28;88253;-60
2022/10/13 04:58:43;;;;;;;3.23;2.87;;;4.40;99.90;4.70;101035.00;;;;4953537;28;87517;-62
2022/10/13 05:01:17;;;;;;;3.00;2.30;;;4.80;99.90;4.70;101025.00;;;;4946774;28;88708;-61
2022/10/13 05:03:43;;;;;;;6.50;3.93;;;4.90;99.90;4.80;101021.00;;;;4949180;28;110653;-61
2022/10/13 05:06:17;;;;;;;3.13;2.03;;;4.90;99.90;4.80;101013.00;;;;4947920;28;87656;-61
2022/10/13 05:08:43;;;;;;;3.57;2.70;;;5.00;99.90;4.80;101021.00;;;;4944968;28;87775;-61
2022/10/13 05:11:10;;;;;;;5.20;3.17;;;5.00;99.90;4.80;101026.00;;;;4952173;28;87253;-61
2022/10/13 05:13:36;;;;;;;3.73;2.87;;;5.00;99.90;4.80;101005.00;;;;4946981;28;111846;-61
2022/10/13 05:16:10;;;;;;;3.33;2.80;;;5.00;99.90;4.80;101004.00;;;;4947067;28;111031;-61
2022/10/13 05:18:36;;;;;;;8.37;3.43;;;5.00;99.90;4.80;101010.00;;;;4950736;28;88667;-61
2022/10/13 05:21:07;;;;;;;2.57;2.37;;;5.00;99.90;4.80;101010.00;;;;4948696;28;111011;-62
2022/10/13 05:23:33;;;;;;;2.90;2.23;;;5.00;99.90;4.70;101011.00;;;;4948622;28;93086;-61
2022/10/13 05:26:08;;;;;;;3.13;2.83;;;4.90;99.90;4.70;100999.00;;;;4954387;28;88333;-63
2022/10/13 05:28:34;;;;;;;3.87;2.63;;;4.90;99.90;4.60;101003.00;;;;4944617;28;87799;-62
2022/10/13 05:31:15;;;;;;;5.93;2.33;;;4.80;99.90;4.60;100998.00;;;;4945192;28;89270;-62
2022/10/13 05:33:42;;;;;;;4.80;3.03;;;4.80;99.90;4.60;101003.00;;;;4952503;28;88571;-61
2022/10/13 05:36:15;;;;;;;4.37;2.50;;;4.80;99.90;4.60;100993.00;;;;4946040;28;87307;-62
2022/10/13 05:38:41;;;;;;;3.20;2.80;;;4.80;99.90;4.60;100989.00;;;;4950963;28;87781;-62
2022/10/13 05:41:10;;;;;;;3.63;2.23;;;4.70;99.90;4.60;100994.00;;;;4952882;28;88895;-61
2022/10/13 05:43:38;;;;;;;6.30;2.83;;;4.80;99.90;4.60;100991.00;;;;4944847;28;105761;-61
2022/10/13 05:46:04;;;;;;;3.10;2.57;;;4.70;99.90;4.70;100997.00;;;;4946951;28;92620;-62
2022/10/13 05:48:31;;;;;;;4.07;2.33;;;4.80;99.90;4.70;100997.00;;;;4948199;28;87767;-61
2022/10/13 05:51:00;;;;;;;4.50;3.67;;;4.90;99.90;4.80;100997.00;;;;4944105;28;117867;-62
2022/10/13 05:53:30;;;;;;;2.63;2.33;;;4.90;99.90;4.90;101001.00;;;;4952419;28;91709;-61
2022/10/13 05:56:05;;;;;;;2.93;2.73;;;5.00;99.90;4.90;100998.00;;;;4952221;28;87796;-61
2022/10/13 05:58:37;;;;;;;5.37;2.93;;;5.00;99.90;5.10;100995.00;;;;4949983;28;87824;-62
2022/10/13 06:01:07;;;;;;;3.13;2.30;;;5.20;99.90;5.20;100999.00;;;;4952160;28;104967;-61
2022/10/13 06:03:34;;;;;;;4.03;2.90;;;5.30;99.90;5.40;101006.00;;;;4945463;28;90427;-61
2022/10/13 06:05:59;;;;;;;6.17;3.80;;;6.00;99.90;5.60;101016.00;;;;4950018;28;110913;-61
2022/10/13 06:08:25;;;;;;;5.20;4.00;;;5.60;99.90;5.80;101006.00;;;;4944940;28;100547;-61
2022/10/13 06:10:51;;;;;;;4.87;3.50;;;5.80;99.90;6.00;101007.00;;;;4940678;28;118159;-61
2022/10/13 06:13:17;;;;;;;5.17;3.60;;;6.10;99.90;6.20;100999.00;;;;4946122;28;88216;-61
2022/10/13 06:15:42;;;;;;;4.90;3.33;;;6.30;99.90;6.50;101008.00;;;;4952592;28;110419;-61
2022/10/13 06:18:09;;;;;;;4.30;3.90;;;6.50;99.90;6.70;101011.00;;;;4948322;28;108235;-61
2022/10/13 06:20:35;;;;;;;8.23;3.10;;;7.10;99.90;6.90;101015.00;;;;4948429;28;88304;-61
2022/10/13 06:23:02;;;;;;;3.67;2.87;;;6.90;99.90;7.10;101010.00;;;;4951647;28;100669;-61
2022/10/13 06:25:28;;;;;;;9.53;3.37;;;7.10;99.90;7.40;101006.00;;;;4948688;28;106387;-61
2022/10/13 06:27:56;;;;;;;5.63;3.17;;;7.40;99.90;7.60;101013.00;;;;4943715;28;87826;-60
2022/10/13 06:30:21;;;;;;;11.00;5.00;;;7.80;99.90;7.90;101016.00;;;;4940033;28;87874;-60
2022/10/13 06:32:47;;;;;;;8.57;4.00;;;7.80;99.90;8.10;101009.00;;;;4941161;28;116706;-61
2022/10/13 06:35:13;;;;;;;5.00;3.57;;;8.10;99.90;8.20;101017.00;;;;4948815;28;110817;-61
2022/10/13 06:37:39;;;;;;;4.93;4.00;;;8.30;99.90;8.30;101016.00;;;;4951600;28;87670;-60
2022/10/13 06:40:05;;;;;;;8.20;4.27;;;8.60;99.90;8.40;101016.00;;;;4945608;28;118745;-60
2022/10/13 06:42:32;;;;;;;5.33;3.17;;;8.50;99.90;8.40;101012.00;;;;4948135;28;107281;-60
2022/10/13 06:44:58;;;;;;;5.53;3.43;;;8.50;99.90;8.40;101017.00;;;;4948645;28;87727;-61
2022/10/13 06:47:24;;;;;;;7.17;3.73;;;8.50;99.90;8.40;101018.00;;;;4946143;28;109171;-60
2022/10/13 06:49:50;;;;;;;2.93;2.37;;;8.50;99.90;8.40;101013.00;;;;4940370;28;104171;-61
2022/10/13 06:52:15;;;;;;;7.57;3.23;;;8.50;99.90;8.40;101021.00;;;;4950997;28;117433;-61
2022/10/13 06:54:41;;;;;;;5.77;3.83;;;8.50;99.90;8.40;101018.00;;;;4946037;28;111439;-61
2022/10/13 06:57:06;;;;;;;4.00;3.43;;;8.50;99.90;8.30;101022.00;;;;4947302;28;109251;-61
2022/10/13 06:59:32;;;;;;;6.60;3.17;;;8.40;99.90;8.40;101028.00;;;;4950516;28;103140;-60
2022/10/13 07:01:58;;;;;;;4.13;2.90;;;8.50;99.90;8.50;101028.00;;;;4951924;28;116668;-61
2022/10/13 07:04:25;;;;;;;4.17;3.87;;;8.50;99.90;8.70;101027.00;;;;4946825;28;110629;-61
2022/10/13 07:06:51;;;;;;;3.63;2.97;;;8.70;99.90;8.90;101030.00;;;;4951204;28;88223;-59
2022/10/13 07:09:18;;;;;;;4.90;4.07;;;8.90;99.90;9.20;101033.00;;;;4944306;28;89109;-61
2022/10/13 07:11:45;;;;;;;9.20;3.53;;;9.20;99.90;9.50;101036.00;;;;4950621;28;87722;-61
2022/10/13 07:14:12;;;;;;;7.33;3.97;;;9.40;99.90;9.90;101036.00;;;;4949987;28;92614;-61
2022/10/13 07:16:37;;;;;;;7.73;3.07;;;9.80;99.90;10.30;101041.00;;;;4944957;28;88092;-60
2022/10/13 07:19:03;;;;;;;4.93;4.13;;;10.20;99.90;10.80;101031.00;;;;4945394;28;117261;-60
2022/10/13 07:21:29;;;;;;;3.80;3.20;;;10.60;99.90;11.10;101035.00;;;;4950590;28;117919;-61
2022/10/13 07:23:55;;;;;;;4.87;3.53;;;10.90;99.90;11.30;101033.00;;;;4950654;28;110196;-61
2022/10/13 07:26:21;;;;;;;19.97;5.10;;;11.20;99.90;11.80;101036.00;;;;4950355;28;88051;-60
2022/10/13 07:28:47;;;;;;;6.77;4.37;;;11.60;99.90;12.20;101043.00;;;;4946993;28;88264;-62
2022/10/13 07:31:17;;;;;;;6.53;3.13;;;12.00;99.90;12.70;101039.00;;;;4942437;28;107636;-61
2022/10/13 07:33:46;;;;;;;3.87;3.20;;;12.50;99.90;13.20;101042.00;;;;4950407;28;87899;-61
2022/10/13 07:36:12;;;;;;;5.93;3.97;;;12.90;99.90;13.60;101033.00;;;;4948814;28;87689;-58
2022/10/13 07:38:38;;;;;;;5.17;3.17;;;13.40;99.90;14.00;101028.00;;;;4945849;28;87809;-61
2022/10/13 07:41:07;;;;;;;5.80;3.37;;;13.80;99.90;14.30;101031.00;;;;4952784;28;94477;-61
2022/10/13 07:43:33;;;;;;;5.07;3.07;;;14.10;99.90;14.50;101027.00;;;;4950834;28;87474;-61
2022/10/13 07:46:01;;;;;;;3.67;2.83;;;14.40;99.90;14.60;101030.00;;;;4953644;28;88695;-61
2022/10/13 07:48:27;;;;;;;3.40;2.63;;;14.50;99.90;14.70;101028.00;;;;4953192;28;88583;-61
2022/10/13 07:50:53;;;;;;;4.00;2.83;;;14.60;99.90;14.70;101027.00;;;;4943210;28;117934;-61
2022/10/13 07:53:18;;;;;;;3.80;2.70;;;14.60;99.90;14.80;101029.00;;;;4950112;28;109849;-61
2022/10/13 07:55:44;;;;;;;4.63;3.37;;;14.70;99.90;14.90;101014.00;;;;4952548;28;108713;-61
2022/10/13 07:58:10;;;;;;;4.93;2.65;;;14.80;99.90;15.00;101019.00;;;;4951462;28;117915;-61
2022/10/13 08:00:35;;;;;;;5.55;3.47;;;14.80;99.90;15.30;101015.00;;;;4950221;28;116808;-61
2022/10/13 08:03:01;;;;;;;8.00;2.78;;;15.10;99.90;15.60;101005.00;;;;4953439;28;111101;-62
2022/10/13 08:05:27;;;;;;;11.38;3.35;;;15.40;99.90;16.10;101015.00;;;;4950061;28;90648;-60
2022/10/13 08:07:53;;;;;;;5.07;2.83;;;15.70;99.90;16.50;101011.00;;;;4942471;28;89109;-59
2022/10/13 08:10:20;;;;;;;7.20;3.05;;;16.20;99.90;16.80;101017.00;;;;4947830;28;117960;-59
2022/10/13 08:12:46;;;;;;;4.15;3.20;;;16.50;99.90;16.90;101012.00;;;;4946624;28;87679;-56
2022/10/13 08:15:11;;;;;;;4.47;2.95;;;16.70;99.90;17.00;101011.00;;;;4951396;28;87975;-60
2022/10/13 08:17:37;;;;;;;4.65;3.22;;;16.80;99.90;17.00;101007.00;;;;4954142;28;118231;-59
2022/10/13 08:20:05;;;;;;;3.72;2.75;;;16.90;99.90;17.00;101001.00;;;;4949390;28;115272;-59
2022/10/13 08:22:33;;;;;;;4.32;2.95;;;16.90;99.90;17.00;101008.00;;;;4952270;28;89662;-60
2022/10/13 08:25:00;;;;;;;4.90;2.92;;;16.90;99.90;17.00;101015.00;;;;4954264;28;87838;-60
2022/10/13 08:27:27;;;;;;;4.45;2.90;;;16.90;99.90;17.00;101014.00;;;;4950710;28;87291;-62
2022/10/13 08:29:53;;;;;;;10.02;3.63;;;16.90;99.90;17.00;101021.00;;;;4942543;28;109120;-62
2022/10/13 08:32:20;;;;;;;6.20;3.00;;;16.90;99.90;17.00;101007.00;;;;4939937;28;87851;-61
2022/10/13 08:34:47;;;;;;;8.27;4.15;;;16.90;99.90;17.00;101001.00;;;;4945803;28;89114;-62
2022/10/13 08:37:15;;;;;;;5.25;2.80;;;16.90;99.90;17.00;101003.00;;;;4953485;28;89294;-60
2022/10/13 08:39:41;;;;;;;6.60;3.83;;;17.00;99.90;17.00;100996.00;;;;4952931;28;88520;-60
2022/10/13 08:42:20;;;;;;;5.47;3.35;;;17.00;99.90;17.00;101004.00;;;;4948774;28;87770;-60
2022/10/13 08:44:52;;;;;;;7.30;3.83;;;16.90;99.90;17.00;100996.00;;;;4952146;28;87654;-59
2022/10/13 08:47:32;;;;;;;4.88;2.83;;;16.90;99.90;17.00;100994.00;;;;4952675;28;88611;-59
2022/10/13 08:50:06;;;;;;;6.53;3.63;;;16.90;99.90;17.00;100997.00;;;;4953729;28;88676;-60
2022/10/13 08:52:54;;;;;;;5.15;3.30;;;16.90;99.90;17.20;100994.00;;;;4951819;28;86832;-58
2022/10/13 08:55:34;;;;;;;4.20;3.33;;;17.00;99.90;17.50;100993.00;;;;4957917;28;89106;-60
2022/10/13 08:58:08;;;;;;;6.28;3.28;;;17.30;99.90;17.80;100995.00;;;;4954538;28;88015;-60
2022/10/13 09:00:33;;;;;;;5.25;3.17;;;17.60;99.80;18.10;100988.00;;;;4951237;28;110584;-58
2022/10/13 09:03:23;;;;;;;6.00;3.80;;;17.90;98.80;18.30;100989.00;;;;4947094;28;110655;-60
2022/10/13 09:06:30;;;;;;;12.60;3.55;;;18.10;97.90;18.50;100987.00;;;;4953000;28;87613;-59
2022/10/13 09:09:06;;;;;;;9.63;3.50;;;18.30;97.20;18.80;100990.00;;;;4948734;28;88696;-61
2022/10/13 09:11:36;;;;;;;6.03;3.65;;;18.60;96.30;18.90;100985.00;;;;4948954;28;104924;-59
2022/10/13 09:14:23;;;;;;;4.80;3.35;;;18.80;95.20;19.00;100989.00;;;;4954889;28;103992;-56
2022/10/13 09:16:50;;;;;;;5.45;3.10;;;18.90;94.40;19.20;100977.00;;;;4940422;28;87646;-62
2022/10/13 09:19:35;;;;;;;6.03;3.88;;;19.00;93.50;19.30;100980.00;;;;4951031;28;101721;-59
2022/10/13 09:22:20;;;;;;;8.73;3.63;;;19.10;93.20;19.40;100980.00;;;;4952874;28;88014;-60
2022/10/13 09:24:46;;;;;;;4.90;3.75;;;19.30;93.20;19.70;100985.00;;;;4953018;28;90615;-57
2022/10/13 09:27:15;;;;;;;15.55;3.47;;;19.50;92.90;19.90;100975.00;;;;4955104;28;88814;-59
2022/10/13 09:29:43;;;;;;;5.15;3.72;;;19.70;91.90;20.00;100985.00;;;;4942169;28;88705;-60
2022/10/13 09:32:17;;;;;;;7.88;3.25;;;19.80;91.20;20.10;100990.00;;;;4949825;28;87929;-60
2022/10/13 09:34:42;;;;;;;5.22;3.58;;;19.90;90.60;20.30;100987.00;;;;4952728;28;88040;-60
2022/10/13 09:37:22;;;;;;;6.40;3.58;;;20.00;90.70;20.50;100980.00;;;;4949476;28;108222;-60
2022/10/13 09:40:19;;;;;;;5.13;3.25;;;20.20;90.00;20.80;100985.00;;;;4948336;28;101642;-58
2022/10/13 09:42:52;;;;;;;4.30;2.92;;;20.50;90.00;21.00;100980.00;;;;4953538;28;88312;-59
2022/10/13 09:45:22;;;;;;;4.68;3.80;;;20.70;86.70;21.10;100980.00;;;;4951252;28;92317;-60
2022/10/13 09:47:52;;;;;;;12.23;3.88;;;20.90;84.60;21.00;100979.00;;;;4954475;28;87875;-59
2022/10/13 09:50:26;;;;;;;4.50;3.90;;;20.90;83.20;21.00;100971.00;;;;4942953;28;108962;-60
2022/10/13 09:53:17;;;;;;;4.35;3.08;;;20.90;83.00;21.10;100975.00;;;;4946568;28;88842;-60
2022/10/13 09:55:45;;;;;;;5.53;3.58;;;20.90;83.20;21.20;100967.00;;;;4951169;28;88226;-60
2022/10/13 09:58:27;;;;;;;6.38;3.95;;;21.00;82.20;21.40;100965.00;;;;4952562;28;87848;-60
2022/10/13 10:00:53;;;;;;;7.70;3.70;;;21.10;81.30;21.60;100972.00;;;;4953862;28;108558;-60
2022/10/13 10:03:25;;;;;;;7.45;3.85;;;21.30;80.80;21.60;100973.00;;;;4950774;28;106639;-59
2022/10/13 10:05:55;;;;;;;5.85;4.43;;;21.40;80.10;21.80;100969.00;;;;4950565;28;101445;-60
2022/10/13 10:08:58;;;;;;;3.80;2.92;;;21.50;79.70;21.90;100964.00;;;;4962955;28;87882;-60
2022/10/13 10:11:40;;;;;;;5.80;3.53;;;21.60;76.70;21.90;100976.00;;;;4937495;28;87114;-60
2022/10/13 10:14:26;;;;;;;7.15;3.97;;;21.60;76.70;22.00;100968.00;;;;4952672;28;87713;-60
2022/10/13 10:17:20;;;;;;;6.53;3.85;;;21.80;76.00;22.10;100961.00;;;;4967777;28;87886;-60
2022/10/13 10:20:07;;;;;;;3.83;3.22;;;21.80;74.70;22.10;100961.00;;;;4944276;28;88743;-59
2022/10/13 10:22:50;;;;;;;7.55;4.47;;;21.90;74.70;22.10;100957.00;;;;4950584;28;88983;-60
2022/10/13 10:25:41;;;;;;;6.28;3.10;;;21.90;74.90;22.10;100961.00;;;;4951434;28;87821;-60
2022/10/13 10:28:24;;;;;;;7.38;3.30;;;21.90;74.00;22.20;100963.00;;;;4947748;28;87716;-60
2022/10/13 10:31:30;;;;;;;4.00;2.95;;;21.90;73.80;22.30;100953.00;;;;4945817;28;88191;-58
2022/10/13 10:34:34;;;;;;;6.90;3.45;;;22.20;72.70;22.30;100953.00;;;;4945690;28;88085;-59
2022/10/13 10:37:29;;;;;;;4.63;3.33;;;22.00;72.70;22.30;100947.00;;;;4949306;28;92274;-60
2022/10/13 10:40:30;;;;;;;5.57;3.67;;;22.00;71.80;22.40;100945.00;;;;4968250;28;103021;-60
2022/10/13 10:43:18;;;;;;;11.02;4.00;;;22.10;72.30;22.40;100941.00;;;;4946302;28;87714;-60
2022/10/13 10:45:47;;;;;;;4.22;2.88;;;22.10;72.00;22.30;100954.00;;;;4951028;28;101998;-60
2022/10/13 10:48:30;;;;;;;10.05;3.47;;;22.00;71.80;22.20;100945.00;;;;4950797;28;88800;-59
2022/10/13 10:50:56;;;;;;;3.22;2.90;;;21.90;72.10;22.00;100953.00;;;;4952270;28;88065;-58
2022/10/13 10:53:39;;;;;;;5.38;3.17;;;21.80;72.70;21.80;100942.00;;;;4953958;28;108831;-59
2022/10/13 10:56:24;;;;;;;5.10;3.08;;;21.60;72.30;21.50;100938.00;;;;4946068;28;88409;-59
2022/10/13 10:59:25;;;;;;;7.30;3.78;;;21.40;73.30;21.50;100935.00;;;;4950869;28;88375;-60
2022/10/13 11:02:06;;;;;;;3.88;2.85;;;21.30;74.50;21.70;100932.00;;;;4965540;28;88082;-60
2022/10/13 11:04:45;;;;;;;5.43;3.53;;;21.40;74.60;21.60;100926.00;;;;4944037;28;107085;-60
2022/10/13 11:07:43;;;;;;;3.88;3.10;;;21.30;74.70;21.70;100914.00;;;;4950946;28;99062;-60
2022/10/13 11:10:17;;;;;;;5.25;3.35;;;21.40;75.80;21.90;100908.00;;;;4945537;28;89156;-60
2022/10/13 11:12:52;;;;;;;8.23;3.60;;;21.60;75.10;21.90;100904.00;;;;4949522;28;87907;-59